createdAt,value
2018-11-04T00:00:45.420Z,52.07
2018-11-04T00:05:49.697Z,43.80
2018-11-04T00:10:53.511Z,37.90
2018-11-04T00:15:57.201Z,42.20
2018-11-04T00:21:02.129Z,39.43
2018-11-04T00:26:06.826Z,49.93
2018-11-04T00:31:10.774Z,48.20
2018-11-04T00:36:14.488Z,56.90
2018-11-04T00:41:18.079Z,50.73
2018-11-04T00:46:21.733Z,57.43
2018-11-04T00:51:25.367Z,58.67
2018-11-04T00:56:29.044Z,65.30
2018-11-04T01:01:32.624Z,61.37
2018-11-04T01:06:36.201Z,59.27
2018-11-04T01:11:39.815Z,55.90
2018-11-04T01:16:47.375Z,63.93
2018-11-04T01:21:51.090Z,67.93
2018-11-04T01:26:54.728Z,61.97
2018-11-04T01:31:58.268Z,68.00
2018-11-04T01:37:02.236Z,59.43
2018-11-04T01:42:06.362Z,66.23
2018-11-04T01:47:09.959Z,66.70
2018-11-04T01:52:13.675Z,63.57
2018-11-04T01:57:17.267Z,68.63
2018-11-04T02:02:21.022Z,68.80
2018-11-04T02:07:24.654Z,63.73
2018-11-04T02:12:28.619Z,64.83
2018-11-04T02:17:32.199Z,48.73
2018-11-04T02:22:35.775Z,53.77
2018-11-04T02:27:39.688Z,42.37
2018-11-04T02:32:44.343Z,56.23
2018-11-04T02:37:47.891Z,54.20
2018-11-04T02:42:51.487Z,43.93
2018-11-04T02:47:55.314Z,52.43
2018-11-04T02:52:58.958Z,48.90
2018-11-04T02:58:02.905Z,57.83
2018-11-04T03:03:06.924Z,52.50
2018-11-04T03:08:10.568Z,46.83
2018-11-04T03:13:14.257Z,57.50
2018-11-04T03:18:17.864Z,49.83
2018-11-04T03:23:21.481Z,52.70
2018-11-04T03:28:25.061Z,55.27
2018-11-04T03:33:28.739Z,56.83
2018-11-04T03:38:32.361Z,48.70
2018-11-04T03:43:35.909Z,52.07
2018-11-04T03:48:39.546Z,46.33
2018-11-04T03:53:43.125Z,55.63
2018-11-04T03:58:46.798Z,49.77
2018-11-04T04:03:50.364Z,50.87
2018-11-04T04:08:54.125Z,44.70
2018-11-04T04:13:57.731Z,51.73
2018-11-04T04:19:01.393Z,48.43
2018-11-04T04:24:05.182Z,43.33
2018-11-04T04:29:08.861Z,46.07
2018-11-04T04:34:12.704Z,39.40
2018-11-04T04:39:16.316Z,42.70
2018-11-04T04:44:19.945Z,43.40
2018-11-04T04:49:23.575Z,42.43
2018-11-04T04:54:29.503Z,39.03
2018-11-04T04:59:33.274Z,40.03
2018-11-04T05:04:36.963Z,37.87
2018-11-04T05:09:40.519Z,41.93
2018-11-04T05:14:44.186Z,37.07
2018-11-04T05:19:47.817Z,39.13
2018-11-04T05:24:51.419Z,51.03
2018-11-04T05:29:54.992Z,46.17
2018-11-04T05:34:58.624Z,41.83
2018-11-04T05:40:02.483Z,38.97
2018-11-04T05:45:07.167Z,39.67
2018-11-04T05:50:10.784Z,40.50
2018-11-04T05:55:14.337Z,37.03
2018-11-04T06:00:26.076Z,38.90
2018-11-04T06:05:29.784Z,37.83
2018-11-04T06:10:33.394Z,42.33
2018-11-04T06:15:37.259Z,36.70
2018-11-04T06:20:40.845Z,33.87
2018-11-04T06:25:44.448Z,36.23
2018-11-04T06:30:48.633Z,35.57
2018-11-04T06:35:52.230Z,42.10
2018-11-04T06:40:55.879Z,39.33
2018-11-04T06:45:59.465Z,41.57
2018-11-04T06:51:03.081Z,37.10
2018-11-04T06:56:06.997Z,32.47
2018-11-04T07:01:10.618Z,33.97
2018-11-04T07:06:14.339Z,33.53
2018-11-04T07:11:18.046Z,33.23
2018-11-04T07:16:21.644Z,43.03
2018-11-04T07:21:25.449Z,40.93
2018-11-04T07:26:29.097Z,35.73
2018-11-04T07:31:32.913Z,42.27
2018-11-04T07:36:36.524Z,38.27
2018-11-04T07:41:40.250Z,41.10
2018-11-04T07:46:43.867Z,40.27
2018-11-04T07:51:47.417Z,35.27
2018-11-04T07:56:51.109Z,36.83
2018-11-04T08:01:54.712Z,40.98
2018-11-04T08:06:58.331Z,34.10
2018-11-04T08:12:01.950Z,38.40
2018-11-04T08:17:06.006Z,39.40
2018-11-04T08:22:09.717Z,43.13
2018-11-04T08:27:13.495Z,39.67
2018-11-04T08:32:17.118Z,39.13
2018-11-04T08:37:20.873Z,45.60
2018-11-04T08:42:24.409Z,37.10
2018-11-04T08:47:28.013Z,44.17
2018-11-04T08:52:31.668Z,41.87
2018-11-04T08:57:35.258Z,46.47
2018-11-04T09:02:38.881Z,49.27
2018-11-04T09:07:42.510Z,44.13
2018-11-04T09:12:46.568Z,40.00
2018-11-04T09:17:50.225Z,43.03
2018-11-04T09:22:53.793Z,46.80
2018-11-04T09:27:57.453Z,51.87
2018-11-04T09:33:01.199Z,47.87
2018-11-04T09:38:05.308Z,59.03
2018-11-04T09:43:08.859Z,48.97
2018-11-04T09:48:12.571Z,47.23
2018-11-04T09:53:16.319Z,44.17
2018-11-04T09:58:19.952Z,46.83
2018-11-04T10:03:23.561Z,45.00
2018-11-04T10:08:27.616Z,40.50
2018-11-04T10:13:31.209Z,42.30
2018-11-04T10:18:34.755Z,43.50
2018-11-04T10:23:38.785Z,45.03
2018-11-04T10:28:42.435Z,41.23
2018-11-04T10:33:46.156Z,39.00
2018-11-04T10:38:50.029Z,41.23
2018-11-04T10:43:53.571Z,44.40
2018-11-04T10:48:57.388Z,48.97
2018-11-04T10:54:01.249Z,45.67
2018-11-04T10:59:05.145Z,42.53
2018-11-04T11:04:09.264Z,46.03
2018-11-04T11:09:13.007Z,54.50
2018-11-04T11:14:16.751Z,57.63
2018-11-04T11:19:20.401Z,47.17
2018-11-04T11:24:24.045Z,46.50
2018-11-04T11:29:27.719Z,51.17
2018-11-04T11:34:31.428Z,46.83
2018-11-04T11:39:36.728Z,44.90
2018-11-04T11:44:40.405Z,48.73
2018-11-04T11:49:44.008Z,52.37
2018-11-04T11:54:47.749Z,55.53
2018-11-04T11:59:51.473Z,44.87
2018-11-04T12:04:55.051Z,42.00
2018-11-04T12:09:58.622Z,44.53
2018-11-04T12:15:03.691Z,53.63
2018-11-04T12:20:09.871Z,48.30
2018-11-04T12:25:14.088Z,47.53
2018-11-04T12:30:26.983Z,51.73
2018-11-04T12:35:31.643Z,48.93
2018-11-04T12:40:35.397Z,45.97
2018-11-04T12:45:39.076Z,46.60
2018-11-04T12:50:42.711Z,46.63
2018-11-04T12:55:46.301Z,47.03
2018-11-04T13:00:49.884Z,44.60
2018-11-04T13:05:53.517Z,44.30
2018-11-04T13:10:57.060Z,49.07
2018-11-04T13:16:00.674Z,48.47
2018-11-04T13:21:04.301Z,46.23
2018-11-04T13:26:07.882Z,44.60
2018-11-04T13:31:11.527Z,47.43
2018-11-04T13:36:15.186Z,45.60
2018-11-04T13:41:18.778Z,45.57
2018-11-04T13:46:22.393Z,42.30
2018-11-04T13:51:25.959Z,47.23
2018-11-04T13:56:29.780Z,47.30
2018-11-04T14:01:33.368Z,45.23
2018-11-04T14:06:37.157Z,47.57
2018-11-04T14:11:40.812Z,38.00
2018-11-04T14:16:44.389Z,38.20
2018-11-04T14:21:48.131Z,41.83
2018-11-04T14:26:51.792Z,39.67
2018-11-04T14:31:55.505Z,33.70
2018-11-04T14:36:59.155Z,35.90
2018-11-04T14:42:02.827Z,34.90
2018-11-04T14:47:07.433Z,38.57
2018-11-04T14:52:11.338Z,35.13
2018-11-04T14:57:14.974Z,35.53
2018-11-04T15:02:18.666Z,35.33
2018-11-04T15:07:22.303Z,38.03
2018-11-04T15:12:25.907Z,36.13
2018-11-04T15:17:29.624Z,35.53
2018-11-04T15:22:33.213Z,35.60
2018-11-04T15:27:37.104Z,35.20
2018-11-04T15:32:41.211Z,30.47
2018-11-04T15:37:45.204Z,29.13
2018-11-04T15:42:48.785Z,30.60
2018-11-04T15:47:52.386Z,42.07
2018-11-04T15:52:56.010Z,37.53
2018-11-04T15:57:59.648Z,31.73
2018-11-04T16:03:03.333Z,34.90
2018-11-04T16:08:07.219Z,36.23
2018-11-04T16:13:10.724Z,37.70
2018-11-04T16:18:14.431Z,31.17
2018-11-04T16:23:18.177Z,28.80
2018-11-04T16:28:21.890Z,33.57
2018-11-04T16:33:25.492Z,27.07
2018-11-04T16:38:29.080Z,29.57
2018-11-04T16:43:32.885Z,33.63
2018-11-04T16:48:36.393Z,25.40
2018-11-04T16:53:39.959Z,23.30
2018-11-04T16:58:43.524Z,29.60
2018-11-04T17:03:47.391Z,32.23
2018-11-04T17:08:50.947Z,27.80
2018-11-04T17:13:54.539Z,34.23
2018-11-04T17:18:58.279Z,28.77
2018-11-04T17:24:07.022Z,26.43
2018-11-04T17:29:11.504Z,29.37
2018-11-04T17:34:21.415Z,40.57
2018-11-04T17:39:25.065Z,36.13
2018-11-04T17:44:36.121Z,34.53
2018-11-04T17:49:40.058Z,25.80
2018-11-04T17:54:43.932Z,30.23
2018-11-04T17:59:48.325Z,24.80
2018-11-04T18:04:51.958Z,34.93
2018-11-04T18:09:55.557Z,39.53
2018-11-04T18:15:01.709Z,29.93
2018-11-04T18:20:05.983Z,40.60
2018-11-04T18:25:10.577Z,50.93
2018-11-04T18:30:24.034Z,34.60
2018-11-04T18:35:27.608Z,36.63
2018-11-04T18:40:31.129Z,30.07
2018-11-04T18:45:34.695Z,33.97
2018-11-04T18:50:38.306Z,30.63
2018-11-04T18:55:41.858Z,30.50
2018-11-04T19:00:47.171Z,27.70
2018-11-04T19:05:51.585Z,29.17
2018-11-04T19:10:55.242Z,24.30
2018-11-04T19:15:58.817Z,26.73
2018-11-04T19:21:02.596Z,42.00
2018-11-04T19:26:06.572Z,29.20
2018-11-04T19:31:10.262Z,18.37
2018-11-04T19:36:13.928Z,23.80
2018-11-04T19:41:17.531Z,25.83
2018-11-04T19:46:21.186Z,30.10
2018-11-04T19:51:24.793Z,31.27
2018-11-04T19:56:28.319Z,27.47
2018-11-04T20:01:32.186Z,18.27
2018-11-04T20:06:35.875Z,17.83
2018-11-04T20:11:39.643Z,15.47
2018-11-04T20:16:43.409Z,16.53
2018-11-04T20:21:46.950Z,15.60
2018-11-04T20:26:50.833Z,17.10
2018-11-04T20:31:59.579Z,17.73
2018-11-04T20:37:03.143Z,19.30
2018-11-04T20:42:06.680Z,18.03
2018-11-04T20:47:10.424Z,16.07
2018-11-04T20:52:13.996Z,19.77
2018-11-04T20:57:22.883Z,16.67
2018-11-04T21:02:26.902Z,17.47
2018-11-04T21:07:30.226Z,19.13
2018-11-04T21:12:33.848Z,18.73
2018-11-04T21:17:37.465Z,19.17
2018-11-04T21:22:41.022Z,21.13
2018-11-04T21:27:44.729Z,23.57
2018-11-04T21:32:48.427Z,22.90
2018-11-04T21:37:52.398Z,22.83
2018-11-04T21:42:56.393Z,20.67
2018-11-04T21:47:59.976Z,21.87
2018-11-04T21:53:03.621Z,23.73
2018-11-04T21:58:12.002Z,20.77
2018-11-04T22:03:15.776Z,23.23
2018-11-04T22:08:19.208Z,21.20
2018-11-04T22:13:22.728Z,22.83
2018-11-04T22:18:26.433Z,20.90
2018-11-04T22:23:29.985Z,22.73
2018-11-04T22:28:33.968Z,21.57
2018-11-04T22:33:37.869Z,21.57
2018-11-04T22:38:41.901Z,22.60
2018-11-04T22:43:45.773Z,24.13
2018-11-04T22:48:49.602Z,25.60
2018-11-04T22:53:53.212Z,21.83
2018-11-04T22:58:56.832Z,23.37
2018-11-04T23:04:00.480Z,26.43
2018-11-04T23:09:04.746Z,30.40
2018-11-04T23:14:08.479Z,28.40
2018-11-04T23:19:12.159Z,28.70
2018-11-04T23:24:16.755Z,28.43
2018-11-04T23:29:20.401Z,30.37
2018-11-04T23:34:23.851Z,29.10
2018-11-04T23:39:28.072Z,26.40
2018-11-04T23:44:31.602Z,27.60
2018-11-04T23:49:35.217Z,29.70
2018-11-04T23:54:38.811Z,31.07
2018-11-04T23:59:42.414Z,29.17
